Time;durP1;ratioP1;P1;durP2;ratioP2;P2;SDS_P1;SDS_P2;PMS_P1;PMS_P2;Temp;Humidity;BMP_temperature;BMP_pressure;BME280_temperature;BME280_humidity;BME280_pressure;Samples;Min_cycle;Max_cycle;Signal;HPM_P1;HPM_P2
2022/11/27 00:01:24;;;;;;;11.98;4.80;;;9.10;99.90;;;;;;5019393;28;20164;-83
2022/11/27 00:03:49;;;;;;;14.82;4.10;;;9.00;99.90;;;;;;4997221;28;20182;-83
2022/11/27 00:06:21;;;;;;;15.48;5.13;;;8.90;99.90;;;;;;5013830;28;20625;-81
2022/11/27 00:08:47;;;;;;;18.05;5.32;;;8.90;99.90;;;;;;5014499;28;20173;-83
2022/11/27 00:11:19;;;;;;;15.55;4.72;;;8.90;99.90;;;;;;5012580;28;20188;-82
2022/11/27 00:13:45;;;;;;;9.45;3.67;;;8.90;99.90;;;;;;5013420;28;20254;-84
2022/11/27 00:16:12;;;;;;;21.00;4.75;;;9.10;99.90;;;;;;5012083;28;20245;-81
2022/11/27 00:18:38;;;;;;;11.20;4.50;;;9.00;99.90;;;;;;5012632;28;20198;-82
2022/11/27 00:21:16;;;;;;;5.68;3.22;;;8.90;99.90;;;;;;4994692;28;20222;-84
2022/11/27 00:23:42;;;;;;;15.10;4.13;;;9.00;99.90;;;;;;5012730;28;20208;-84
2022/11/27 00:26:09;;;;;;;9.43;3.25;;;8.90;99.90;;;;;;5012574;28;20230;-82
2022/11/27 00:28:35;;;;;;;11.18;3.40;;;8.90;99.90;;;;;;5012513;28;20243;-81
2022/11/27 00:31:03;;;;;;;9.07;3.47;;;8.80;99.90;;;;;;5012539;28;20319;-81
2022/11/27 00:33:29;;;;;;;13.10;3.47;;;8.80;99.90;;;;;;5012347;28;20175;-87
2022/11/27 00:35:55;;;;;;;7.43;3.03;;;8.80;99.90;;;;;;5012548;28;20204;-81
2022/11/27 00:38:21;;;;;;;13.20;4.25;;;8.80;99.90;;;;;;5011903;28;20191;-83
2022/11/27 00:40:47;;;;;;;11.30;3.25;;;8.70;99.90;;;;;;5012217;28;20211;-80
2022/11/27 00:43:12;;;;;;;11.70;3.20;;;8.80;99.90;;;;;;5012375;28;20165;-80
2022/11/27 00:45:38;;;;;;;8.38;3.42;;;8.80;99.90;;;;;;5011851;28;20711;-80
2022/11/27 00:48:04;;;;;;;15.57;3.70;;;8.80;99.90;;;;;;5012189;28;20172;-80
2022/11/27 00:50:31;;;;;;;11.43;3.35;;;8.80;99.90;;;;;;5011950;28;20189;-81
2022/11/27 00:52:59;;;;;;;18.70;4.00;;;8.80;99.90;;;;;;5012279;28;20683;-80
2022/11/27 00:55:26;;;;;;;9.18;3.53;;;8.90;99.90;;;;;;4994674;28;20216;-80
2022/11/27 00:57:51;;;;;;;17.42;3.90;;;9.10;99.90;;;;;;5012103;28;20248;-80
2022/11/27 01:00:17;;;;;;;4.70;3.17;;;9.10;99.90;;;;;;4994176;28;20192;-80
2022/11/27 01:02:43;;;;;;;5.60;3.45;;;9.00;99.90;;;;;;5011916;28;20220;-80
2022/11/27 01:05:09;;;;;;;8.20;3.50;;;8.80;99.90;;;;;;5014691;28;20172;-80
2022/11/27 01:07:34;;;;;;;8.20;3.05;;;8.90;99.90;;;;;;4998125;28;20184;-81
2022/11/27 01:10:00;;;;;;;11.35;3.03;;;8.90;99.90;;;;;;5015444;28;20657;-80
2022/11/27 01:12:26;;;;;;;12.00;5.00;;;8.90;99.90;;;;;;4997528;28;20160;-81
2022/11/27 01:14:51;;;;;;;11.25;4.13;;;8.80;99.90;;;;;;4998107;28;20197;-80
2022/11/27 01:17:17;;;;;;;12.63;3.65;;;8.80;99.90;;;;;;5015692;28;20164;-80
2022/11/27 01:19:42;;;;;;;12.20;3.35;;;8.90;99.90;;;;;;5015420;28;20207;-80
2022/11/27 01:22:08;;;;;;;7.68;3.40;;;9.00;99.90;;;;;;5015432;28;20179;-83
2022/11/27 01:24:33;;;;;;;8.98;3.75;;;8.90;99.90;;;;;;4997821;28;20165;-80
2022/11/27 01:26:59;;;;;;;13.18;3.15;;;8.90;99.90;;;;;;4997997;28;20172;-81
2022/11/27 01:29:24;;;;;;;8.43;3.67;;;8.80;99.90;;;;;;4997657;28;20201;-80
2022/11/27 01:31:50;;;;;;;12.95;2.90;;;8.90;99.90;;;;;;5015445;28;20171;-80
2022/11/27 01:34:17;;;;;;;12.48;3.38;;;8.90;99.90;;;;;;5015150;28;20254;-80
2022/11/27 01:36:44;;;;;;;11.77;3.15;;;9.00;99.90;;;;;;4997136;28;20266;-81
2022/11/27 01:39:15;;;;;;;11.30;3.38;;;9.10;99.90;;;;;;5014717;28;20208;-81
2022/11/27 01:41:40;;;;;;;7.55;3.28;;;9.00;99.90;;;;;;5014955;28;20168;-80
2022/11/27 01:44:24;;;;;;;11.13;2.28;;;8.80;99.90;;;;;;4997666;28;20683;-83
2022/11/27 01:47:15;;;;;;;13.00;3.13;;;8.90;99.90;;;;;;4999225;28;20183;-80
2022/11/27 01:49:52;;;;;;;8.15;1.98;;;8.90;99.90;;;;;;5015149;28;20199;-81
2022/11/27 01:52:30;;;;;;;13.20;3.55;;;8.80;99.90;;;;;;5015742;28;20168;-82
2022/11/27 01:55:06;;;;;;;9.45;2.25;;;8.90;99.90;;;;;;5015240;28;20692;-84
2022/11/27 01:57:37;;;;;;;12.68;2.60;;;8.90;99.90;;;;;;5015375;28;20172;-80
2022/11/27 02:00:05;;;;;;;12.43;2.60;;;8.70;99.90;;;;;;5015468;28;20508;-81
2022/11/27 02:02:31;;;;;;;14.15;3.22;;;8.70;99.90;;;;;;4997430;28;20171;-83
2022/11/27 02:04:56;;;;;;;4.00;2.13;;;8.80;99.90;;;;;;5015128;28;20169;-82
2022/11/27 02:07:22;;;;;;;5.72;2.42;;;8.90;99.90;;;;;;5014784;28;20621;-84
2022/11/27 02:09:48;;;;;;;11.00;2.80;;;9.10;99.90;;;;;;4997734;28;20657;-84
2022/11/27 02:12:50;;;;;;;5.43;2.03;;;9.00;99.90;;;;;;5015166;28;20175;-85
2022/11/27 02:15:33;;;;;;;13.80;2.78;;;8.90;99.90;;;;;;4986017;28;20575;-83
2022/11/27 02:18:17;;;;;;;12.93;2.25;;;8.80;99.90;;;;;;4997470;28;20263;-82
2022/11/27 02:20:45;;;;;;;4.10;2.00;;;9.00;99.90;;;;;;5014644;28;20208;-81
2022/11/27 02:23:29;;;;;;;7.80;2.47;;;9.00;99.90;;;;;;4998085;28;20664;-81
2022/11/27 02:26:13;;;;;;;15.43;2.80;;;9.10;99.90;;;;;;5035531;28;20169;-81
2022/11/27 02:28:51;;;;;;;8.13;2.58;;;9.00;99.90;;;;;;5027643;28;20628;-80
2022/11/27 02:31:54;;;;;;;9.20;2.55;;;8.90;99.90;;;;;;5014478;28;20192;-81
2022/11/27 02:34:35;;;;;;;7.18;2.35;;;8.90;99.90;;;;;;5013890;28;20172;-81
2022/11/27 02:37:25;;;;;;;6.32;2.45;;;8.90;99.90;;;;;;5014191;28;20657;-80
2022/11/27 02:40:06;;;;;;;3.58;1.83;;;8.90;99.90;;;;;;4996532;28;20254;-80
2022/11/27 02:42:59;;;;;;;5.88;2.47;;;8.90;99.90;;;;;;5014137;28;20727;-81
2022/11/27 02:45:37;;;;;;;4.07;2.50;;;8.90;99.90;;;;;;4996398;28;20192;-80
2022/11/27 02:48:04;;;;;;;9.52;3.15;;;9.00;99.90;;;;;;4996229;28;20171;-81
2022/11/27 02:50:33;;;;;;;5.55;1.95;;;9.00;99.90;;;;;;4995803;28;20200;-81
2022/11/27 02:53:04;;;;;;;5.88;1.98;;;9.10;99.90;;;;;;4996146;28;20172;-80
2022/11/27 02:55:34;;;;;;;6.43;1.90;;;9.10;99.90;;;;;;5013545;28;20212;-80
2022/11/27 02:58:02;;;;;;;14.00;2.17;;;9.10;99.90;;;;;;5019381;28;20160;-80
2022/11/27 03:00:30;;;;;;;4.45;1.80;;;9.20;99.90;;;;;;5017302;28;20196;-80
2022/11/27 03:03:00;;;;;;;8.93;2.30;;;9.10;99.90;;;;;;5000474;28;20258;-80
2022/11/27 03:05:31;;;;;;;11.82;2.20;;;9.00;99.90;;;;;;4998963;28;20172;-80
2022/11/27 03:08:23;;;;;;;5.88;1.83;;;8.90;99.90;;;;;;5015107;28;20176;-80
2022/11/27 03:11:01;;;;;;;10.05;1.50;;;8.90;99.90;;;;;;5014712;28;20187;-81
2022/11/27 03:13:30;;;;;;;5.07;1.77;;;9.00;99.90;;;;;;4997397;28;20179;-80
2022/11/27 03:16:13;;;;;;;5.47;1.50;;;9.10;99.90;;;;;;5014401;28;20696;-80
2022/11/27 03:18:49;;;;;;;7.22;2.00;;;9.10;99.90;;;;;;5015090;28;20294;-80
2022/11/27 03:21:24;;;;;;;3.30;1.40;;;9.30;99.90;;;;;;5015622;28;20192;-80
2022/11/27 03:23:49;;;;;;;3.28;1.80;;;9.30;99.90;;;;;;4995266;28;20639;-80
2022/11/27 03:26:15;;;;;;;3.90;1.55;;;9.10;99.90;;;;;;4995303;28;20211;-80
2022/11/27 03:28:43;;;;;;;2.13;1.90;;;9.10;99.90;;;;;;4994961;28;20206;-80
2022/11/27 03:31:10;;;;;;;4.57;1.50;;;9.10;99.90;;;;;;5013188;28;20183;-81
2022/11/27 03:33:37;;;;;;;4.07;1.20;;;9.00;99.90;;;;;;5014213;28;20185;-80
2022/11/27 03:36:14;;;;;;;7.53;1.88;;;9.10;99.90;;;;;;5013697;28;20218;-80
2022/11/27 03:38:40;;;;;;;3.55;2.05;;;9.10;99.90;;;;;;5013291;28;20175;-81
2022/11/27 03:41:17;;;;;;;6.78;1.88;;;9.20;99.90;;;;;;4999510;28;20196;-82
2022/11/27 03:44:06;;;;;;;5.00;1.60;;;9.20;99.90;;;;;;5015429;28;20210;-81
2022/11/27 03:46:45;;;;;;;3.33;1.77;;;9.10;99.90;;;;;;5014624;28;20247;-80
2022/11/27 03:49:30;;;;;;;5.55;1.70;;;9.30;99.90;;;;;;5014280;28;20207;-80
2022/11/27 03:52:34;;;;;;;8.50;1.80;;;9.20;99.90;;;;;;4996211;28;20182;-80
2022/11/27 03:55:20;;;;;;;1.95;1.45;;;9.10;99.90;;;;;;4996177;28;20294;-80
2022/11/27 03:58:11;;;;;;;3.38;1.83;;;9.20;99.90;;;;;;4995377;28;20239;-80
2022/11/27 04:00:41;;;;;;;2.20;1.60;;;9.20;99.90;;;;;;4995586;28;20200;-80
2022/11/27 04:03:10;;;;;;;3.97;1.90;;;9.00;99.90;;;;;;4996141;28;20172;-80
2022/11/27 04:05:36;;;;;;;6.22;1.70;;;9.10;99.90;;;;;;5014197;28;20165;-80
2022/11/27 04:08:01;;;;;;;2.83;1.77;;;9.20;99.90;;;;;;4996136;28;20164;-80
2022/11/27 04:10:27;;;;;;;2.88;1.88;;;9.20;99.90;;;;;;5012810;28;20267;-80
2022/11/27 04:12:52;;;;;;;2.53;1.67;;;9.20;99.90;;;;;;5012895;28;20175;-80
2022/11/27 04:15:21;;;;;;;4.70;1.88;;;9.30;99.90;;;;;;4995839;28;20355;-80
2022/11/27 04:17:46;;;;;;;10.50;2.42;;;9.40;99.90;;;;;;4994910;28;20196;-80
2022/11/27 04:20:20;;;;;;;5.22;1.95;;;9.40;99.90;;;;;;5025704;23;20612;-79
2022/11/27 04:22:53;;;;;;;3.47;1.98;;;9.30;99.90;;;;;;5011760;28;20189;-78
2022/11/27 04:25:20;;;;;;;3.08;1.40;;;9.40;99.90;;;;;;5012548;28;20165;-80
2022/11/27 04:28:05;;;;;;;3.72;2.15;;;9.20;99.90;;;;;;5012203;28;20238;-78
2022/11/27 04:30:31;;;;;;;1.77;1.05;;;9.10;99.90;;;;;;5012033;28;20195;-77
2022/11/27 04:32:57;;;;;;;8.38;1.90;;;9.20;99.90;;;;;;5012144;28;20164;-77
2022/11/27 04:35:22;;;;;;;10.05;1.83;;;9.30;99.90;;;;;;5012234;28;20214;-84
2022/11/27 04:37:48;;;;;;;4.68;1.42;;;9.30;99.90;;;;;;4994906;28;20173;-78
2022/11/27 04:40:13;;;;;;;1.70;1.40;;;9.20;99.90;;;;;;5015231;28;20549;-78
2022/11/27 04:42:39;;;;;;;11.13;1.77;;;9.10;99.90;;;;;;5016105;28;20172;-78
2022/11/27 04:45:05;;;;;;;3.75;1.73;;;9.10;99.90;;;;;;5016085;28;20169;-77
2022/11/27 04:47:31;;;;;;;4.47;1.90;;;8.90;99.90;;;;;;5016131;28;20242;-78
2022/11/27 04:49:56;;;;;;;5.50;2.10;;;9.00;99.90;;;;;;5015982;28;20188;-77
2022/11/27 04:52:22;;;;;;;1.80;1.42;;;9.10;99.90;;;;;;5016108;28;20633;-80
2022/11/27 04:54:47;;;;;;;4.85;1.73;;;9.20;99.90;;;;;;5016036;28;20219;-77
2022/11/27 04:57:13;;;;;;;5.82;1.70;;;9.30;99.90;;;;;;5016184;28;20176;-78
2022/11/27 04:59:39;;;;;;;5.40;2.00;;;9.00;99.90;;;;;;5015938;28;20192;-81
2022/11/27 05:02:04;;;;;;;4.22;2.33;;;9.00;99.90;;;;;;5015586;28;20300;-83
2022/11/27 05:04:30;;;;;;;7.13;2.08;;;9.10;99.90;;;;;;5015601;28;20629;-79
2022/11/27 05:06:55;;;;;;;7.95;2.33;;;9.30;99.90;;;;;;5015628;28;20269;-78
2022/11/27 05:09:21;;;;;;;2.65;1.55;;;9.40;99.90;;;;;;4998124;28;20544;-78
2022/11/27 05:11:47;;;;;;;5.78;2.13;;;9.40;99.90;;;;;;5015500;28;20640;-80
2022/11/27 05:14:16;;;;;;;2.70;1.80;;;9.40;99.90;;;;;;5015314;28;20259;-78
2022/11/27 05:16:52;;;;;;;5.15;1.80;;;9.30;99.90;;;;;;5015417;28;20270;-78
2022/11/27 05:19:20;;;;;;;2.80;1.58;;;9.20;99.90;;;;;;5013600;28;20214;-78
2022/11/27 05:21:47;;;;;;;5.20;2.15;;;9.30;99.90;;;;;;5013877;28;20169;-78
2022/11/27 05:24:13;;;;;;;7.50;1.90;;;9.20;99.90;;;;;;5014534;28;20169;-78
2022/11/27 05:26:40;;;;;;;3.83;2.42;;;9.20;99.90;;;;;;5014879;28;20168;-78
2022/11/27 05:29:06;;;;;;;2.85;1.75;;;9.10;99.90;;;;;;4997265;28;20506;-79
2022/11/27 05:31:32;;;;;;;8.13;2.15;;;8.90;99.90;;;;;;5014916;28;20244;-78
2022/11/27 05:33:58;;;;;;;4.35;2.17;;;8.80;99.90;;;;;;5014681;28;20585;-82
2022/11/27 05:36:24;;;;;;;1.92;1.77;;;8.80;99.90;;;;;;5014928;28;20771;-79
2022/11/27 05:38:49;;;;;;;3.50;1.92;;;8.80;99.90;;;;;;5015225;28;20240;-79
2022/11/27 05:41:15;;;;;;;6.97;2.17;;;9.10;99.90;;;;;;5015592;28;20235;-81
2022/11/27 05:43:41;;;;;;;4.28;1.95;;;9.10;99.90;;;;;;5015425;28;20177;-78
2022/11/27 05:46:09;;;;;;;9.23;2.65;;;9.00;99.90;;;;;;4997375;28;20172;-80
2022/11/27 05:48:35;;;;;;;12.68;2.45;;;9.00;99.90;;;;;;5014844;28;20664;-78
2022/11/27 05:51:01;;;;;;;4.22;2.65;;;8.80;99.90;;;;;;5013867;28;20192;-78
2022/11/27 05:53:27;;;;;;;5.30;2.05;;;8.90;99.90;;;;;;5014782;28;20172;-79
2022/11/27 05:55:53;;;;;;;8.50;2.42;;;8.90;99.90;;;;;;5014733;28;20200;-81
2022/11/27 05:58:18;;;;;;;5.80;2.22;;;8.90;99.90;;;;;;5014611;28;20248;-78
2022/11/27 06:00:45;;;;;;;13.43;2.92;;;9.00;99.90;;;;;;5014469;28;20198;-80
2022/11/27 06:03:10;;;;;;;4.38;2.15;;;9.00;99.90;;;;;;5014662;28;20656;-78
2022/11/27 06:05:40;;;;;;;9.10;3.10;;;8.90;99.90;;;;;;5014511;28;20168;-79
2022/11/27 06:08:06;;;;;;;5.47;2.20;;;8.80;99.90;;;;;;5014057;28;20176;-78
2022/11/27 06:10:32;;;;;;;5.35;2.10;;;9.00;99.90;;;;;;5014886;28;20195;-78
2022/11/27 06:12:57;;;;;;;4.95;3.05;;;9.00;99.90;;;;;;4996808;28;20180;-78
2022/11/27 06:15:23;;;;;;;7.60;2.60;;;9.10;99.90;;;;;;5014118;28;20200;-78
2022/11/27 06:17:49;;;;;;;4.00;2.00;;;9.10;99.90;;;;;;5014403;28;20165;-78
2022/11/27 06:20:15;;;;;;;7.82;3.10;;;9.10;99.90;;;;;;5013787;28;20568;-78
2022/11/27 06:22:41;;;;;;;5.38;2.40;;;9.20;99.90;;;;;;5014321;28;20238;-78
2022/11/27 06:25:07;;;;;;;5.13;1.92;;;9.30;99.90;;;;;;5014187;28;20629;-78
2022/11/27 06:27:34;;;;;;;5.18;2.70;;;9.30;99.90;;;;;;5013971;28;20589;-78
2022/11/27 06:30:00;;;;;;;5.90;2.63;;;9.30;99.90;;;;;;4996225;28;20238;-78
2022/11/27 06:32:26;;;;;;;6.60;2.20;;;9.30;99.90;;;;;;5013914;28;20825;-79
2022/11/27 06:34:51;;;;;;;5.90;2.70;;;9.40;99.90;;;;;;4996263;28;20691;-80
2022/11/27 06:37:17;;;;;;;3.70;2.80;;;9.40;99.90;;;;;;4996512;28;20188;-79
2022/11/27 06:39:42;;;;;;;7.05;2.38;;;9.30;99.90;;;;;;5014302;28;20576;-85
2022/11/27 06:42:08;;;;;;;3.17;1.83;;;9.20;99.90;;;;;;5014128;28;20181;-78
2022/11/27 06:44:34;;;;;;;8.55;3.00;;;9.10;99.90;;;;;;5013454;28;20542;-78
2022/11/27 06:46:59;;;;;;;3.83;2.90;;;9.30;99.90;;;;;;5013741;28;20191;-78
2022/11/27 06:49:25;;;;;;;6.85;2.10;;;9.50;99.90;;;;;;5013606;28;20188;-78
2022/11/27 06:51:50;;;;;;;7.35;2.97;;;9.50;99.90;;;;;;5013431;28;20164;-79
2022/11/27 06:54:16;;;;;;;2.95;2.30;;;9.50;99.90;;;;;;5014468;28;20172;-93
2022/11/27 06:56:41;;;;;;;3.33;2.30;;;9.60;99.90;;;;;;5015696;28;20669;-93
2022/11/27 06:59:13;;;;;;;4.03;2.30;;;9.60;99.90;;;;;;4997960;28;20160;-86
2022/11/27 07:01:39;;;;;;;1.98;1.77;;;9.70;99.90;;;;;;4995747;28;20649;-79
2022/11/27 07:04:05;;;;;;;4.43;2.33;;;9.70;99.90;;;;;;5013793;28;20169;-79
2022/11/27 07:06:30;;;;;;;13.63;2.50;;;9.70;99.90;;;;;;5013451;28;20179;-82
2022/11/27 07:08:56;;;;;;;4.20;2.33;;;9.80;99.90;;;;;;5013553;28;20558;-85
2022/11/27 07:11:27;;;;;;;3.38;2.63;;;9.70;99.90;;;;;;5014789;28;20160;-92
2022/11/27 07:13:55;;;;;;;4.60;2.55;;;9.60;99.90;;;;;;5015255;28;20175;-91
2022/11/27 07:16:21;;;;;;;9.60;2.75;;;9.60;99.90;;;;;;5015830;28;20208;-92
2022/11/27 07:18:51;;;;;;;6.43;2.63;;;9.50;99.90;;;;;;5015643;28;20183;-92
2022/11/27 07:21:17;;;;;;;4.45;2.47;;;9.60;99.90;;;;;;5013385;28;20238;-80
2022/11/27 07:23:43;;;;;;;7.72;2.67;;;9.80;99.90;;;;;;5014020;28;20558;-89
2022/11/27 07:26:10;;;;;;;5.32;2.72;;;9.90;99.90;;;;;;5016483;28;20164;-94
2022/11/27 07:28:36;;;;;;;3.42;2.40;;;9.90;99.90;;;;;;4997669;28;20200;-93
2022/11/27 07:31:03;;;;;;;7.18;2.55;;;9.80;99.90;;;;;;5019005;28;20199;-87
2022/11/27 07:33:28;;;;;;;2.90;2.30;;;9.60;99.90;;;;;;4997295;28;20187;-89
2022/11/27 07:36:04;;;;;;;6.57;3.60;;;9.40;99.90;;;;;;4997081;28;20208;-94
2022/11/27 07:38:29;;;;;;;5.18;2.50;;;9.40;99.90;;;;;;5015290;28;20230;-92
2022/11/27 07:40:59;;;;;;;4.07;2.90;;;9.50;99.90;;;;;;5015086;28;20188;-86
2022/11/27 07:43:25;;;;;;;5.65;3.00;;;9.60;99.90;;;;;;4997326;28;20255;-92
2022/11/27 07:45:50;;;;;;;3.72;2.45;;;9.40;99.90;;;;;;5016582;28;20188;-92
2022/11/27 07:48:16;;;;;;;5.95;2.97;;;9.30;99.90;;;;;;4996620;28;20704;-85
2022/11/27 07:50:41;;;;;;;4.15;2.50;;;9.20;99.90;;;;;;5013626;28;20192;-91
2022/11/27 07:53:07;;;;;;;6.20;3.28;;;9.30;99.90;;;;;;5016159;28;20247;-89
2022/11/27 07:55:33;;;;;;;3.45;2.35;;;9.30;99.90;;;;;;4997065;28;20258;-91
2022/11/27 07:57:59;;;;;;;7.30;2.45;;;9.50;99.90;;;;;;5015049;28;20255;-86
2022/11/27 08:00:24;;;;;;;8.02;3.72;;;9.60;99.90;;;;;;5015486;28;20220;-92
2022/11/27 08:02:50;;;;;;;5.68;3.17;;;9.40;99.90;;;;;;5015497;28;20708;-91
2022/11/27 08:05:16;;;;;;;12.55;3.20;;;9.40;99.90;;;;;;5015949;28;20183;-92
2022/11/27 08:07:41;;;;;;;4.10;2.97;;;9.50;99.90;;;;;;5015396;28;20223;-92
2022/11/27 08:10:07;;;;;;;4.60;2.50;;;9.50;99.90;;;;;;5014932;28;20189;-88
2022/11/27 08:12:33;;;;;;;6.15;2.50;;;9.40;99.90;;;;;;5015936;28;20168;-94
2022/11/27 08:14:58;;;;;;;7.28;3.05;;;9.50;99.90;;;;;;5017443;28;20167;-91
2022/11/27 08:17:24;;;;;;;8.40;2.95;;;9.60;99.90;;;;;;5014043;28;20177;-87
2022/11/27 08:19:49;;;;;;;4.28;2.70;;;9.60;99.90;;;;;;5014356;28;20196;-92
2022/11/27 08:22:18;;;;;;;10.50;3.65;;;9.50;99.90;;;;;;5014870;28;20168;-92
2022/11/27 08:24:44;;;;;;;3.72;3.28;;;9.40;99.90;;;;;;4997128;28;20259;-92
2022/11/27 08:27:10;;;;;;;4.22;3.10;;;9.40;99.90;;;;;;5014984;28;20176;-90
2022/11/27 08:29:37;;;;;;;8.63;3.03;;;9.50;99.90;;;;;;5014752;28;20191;-87
2022/11/27 08:32:03;;;;;;;10.98;2.80;;;9.50;99.90;;;;;;5015119;28;20247;-90
2022/11/27 08:34:28;;;;;;;3.83;2.33;;;9.40;99.90;;;;;;5016232;28;20626;-89
2022/11/27 08:36:54;;;;;;;6.70;2.85;;;9.50;99.90;;;;;;5016287;28;20215;-93
2022/11/27 08:39:19;;;;;;;4.60;2.78;;;9.30;99.90;;;;;;5016761;28;20652;-86
2022/11/27 08:41:45;;;;;;;8.25;3.50;;;9.40;99.90;;;;;;5014938;28;20557;-92
2022/11/27 08:44:11;;;;;;;5.05;3.20;;;9.50;99.90;;;;;;5015463;28;20187;-94
2022/11/27 08:46:37;;;;;;;6.72;2.97;;;9.50;99.90;;;;;;5014342;28;20223;-90
2022/11/27 08:49:02;;;;;;;7.00;3.17;;;9.40;99.90;;;;;;5014294;28;20164;-92
2022/11/27 08:51:28;;;;;;;7.63;2.75;;;9.50;99.90;;;;;;5014778;28;20223;-92
2022/11/27 08:53:54;;;;;;;5.38;2.78;;;9.50;99.90;;;;;;5014526;28;20691;-92
2022/11/27 08:56:22;;;;;;;3.60;2.85;;;9.40;99.90;;;;;;5014328;28;20223;-88
2022/11/27 08:58:48;;;;;;;8.38;3.58;;;9.40;99.90;;;;;;5013492;28;20169;-91
2022/11/27 09:01:23;;;;;;;11.85;3.10;;;9.30;99.90;;;;;;4995943;28;20527;-88
2022/11/27 09:03:49;;;;;;;7.60;2.70;;;9.40;99.90;;;;;;5013965;28;20169;-81
2022/11/27 09:06:17;;;;;;;5.68;3.10;;;9.50;99.90;;;;;;5012693;28;20161;-86
2022/11/27 09:08:43;;;;;;;5.20;3.58;;;9.50;99.90;;;;;;5012190;28;20161;-84
2022/11/27 09:11:13;;;;;;;6.25;3.70;;;9.50;99.90;;;;;;4994292;28;20551;-78
2022/11/27 09:13:39;;;;;;;9.55;4.43;;;9.40;99.90;;;;;;5013038;28;20522;-90
2022/11/27 09:16:07;;;;;;;4.85;3.13;;;9.40;99.90;;;;;;5013978;28;20531;-93
2022/11/27 09:18:33;;;;;;;11.55;3.50;;;9.40;99.90;;;;;;5013442;28;20845;-79
2022/11/27 09:21:01;;;;;;;6.05;2.47;;;9.40;99.90;;;;;;5011693;28;20669;-78
2022/11/27 09:23:27;;;;;;;5.65;3.08;;;9.30;99.90;;;;;;5012156;28;20514;-78
2022/11/27 09:25:53;;;;;;;5.93;3.25;;;9.40;99.90;;;;;;5014340;28;20567;-89
2022/11/27 09:28:19;;;;;;;7.40;3.92;;;9.50;99.90;;;;;;4997721;28;20204;-79
2022/11/27 09:30:45;;;;;;;8.60;4.35;;;9.50;99.90;;;;;;5014836;28;20702;-76
2022/11/27 09:33:11;;;;;;;6.82;3.42;;;9.50;99.90;;;;;;5015158;28;20168;-79
2022/11/27 09:35:37;;;;;;;3.92;3.45;;;9.60;99.90;;;;;;5014601;28;20204;-80
2022/11/27 09:38:03;;;;;;;4.50;3.15;;;9.50;99.90;;;;;;5014946;28;20540;-80
2022/11/27 09:40:30;;;;;;;6.00;3.78;;;9.40;99.90;;;;;;4997233;28;20193;-79
2022/11/27 09:43:01;;;;;;;6.90;3.15;;;9.40;99.90;;;;;;5015456;28;20168;-94
2022/11/27 09:45:27;;;;;;;5.00;3.22;;;9.30;99.90;;;;;;5019826;28;20156;-92
2022/11/27 09:47:59;;;;;;;9.45;3.70;;;9.30;99.90;;;;;;5017170;28;20640;-79
2022/11/27 09:50:35;;;;;;;7.28;3.22;;;9.30;99.90;;;;;;5016032;28;20180;-78
2022/11/27 09:53:04;;;;;;;4.82;4.32;;;9.40;99.90;;;;;;5016684;28;20175;-79
2022/11/27 09:55:40;;;;;;;5.95;5.18;;;9.30;99.90;;;;;;5016278;28;20203;-80
2022/11/27 09:58:18;;;;;;;7.13;4.40;;;9.30;99.90;;;;;;5014828;28;20222;-78
2022/11/27 10:00:47;;;;;;;4.30;3.28;;;9.40;99.90;;;;;;4997619;28;20279;-78
2022/11/27 10:03:15;;;;;;;6.18;4.32;;;9.50;99.90;;;;;;5015177;28;20168;-77
2022/11/27 10:05:52;;;;;;;8.90;4.13;;;9.60;99.90;;;;;;4997490;28;20165;-77
2022/11/27 10:08:36;;;;;;;10.15;3.88;;;9.70;99.90;;;;;;5015382;28;20164;-78
2022/11/27 10:11:36;;;;;;;9.98;2.83;;;9.80;99.90;;;;;;5019446;28;20192;-90
2022/11/27 10:14:36;;;;;;;12.15;4.50;;;9.90;99.90;;;;;;5030540;28;20180;-78
2022/11/27 10:17:32;;;;;;;8.10;3.90;;;10.00;99.90;;;;;;5032820;28;20219;-77
2022/11/27 10:20:19;;;;;;;17.50;5.78;;;9.80;99.90;;;;;;5026304;28;20271;-75
2022/11/27 10:23:08;;;;;;;12.65;4.25;;;9.90;99.90;;;;;;5027658;28;20168;-77
2022/11/27 10:26:06;;;;;;;9.23;5.88;;;9.90;99.90;;;;;;5001790;28;20230;-83
2022/11/27 10:28:35;;;;;;;7.72;5.10;;;9.80;99.90;;;;;;5018523;28;20192;-76
2022/11/27 10:31:15;;;;;;;6.50;4.60;;;9.90;99.90;;;;;;5021451;28;20192;-86
2022/11/27 10:34:04;;;;;;;8.18;5.13;;;9.90;99.90;;;;;;5021776;28;20176;-76
2022/11/27 10:36:46;;;;;;;6.97;4.45;;;10.00;99.90;;;;;;5020956;28;20223;-75
2022/11/27 10:39:32;;;;;;;7.32;4.18;;;10.10;99.90;;;;;;5021395;28;20171;-78
2022/11/27 10:42:48;;;;;;;12.30;5.60;;;10.00;99.90;;;;;;5027169;28;20184;-76
2022/11/27 10:45:51;;;;;;;9.30;5.38;;;10.00;99.90;;;;;;5026078;28;20180;-78
2022/11/27 10:48:22;;;;;;;5.15;3.97;;;10.10;99.90;;;;;;5030081;28;20157;-78
2022/11/27 10:51:21;;;;;;;14.93;4.57;;;10.10;99.90;;;;;;5023804;28;20220;-75
2022/11/27 10:53:58;;;;;;;7.95;4.60;;;10.10;99.90;;;;;;5030302;28;20189;-76
2022/11/27 10:57:09;;;;;;;10.13;3.90;;;10.10;99.90;;;;;;5036244;28;20759;-76
2022/11/27 11:00:18;;;;;;;9.77;5.00;;;10.10;99.90;;;;;;5033396;28;20192;-76
2022/11/27 11:02:49;;;;;;;7.07;4.60;;;10.30;99.90;;;;;;5032658;28;20172;-76
2022/11/27 11:05:24;;;;;;;8.70;4.78;;;10.40;99.90;;;;;;5014958;28;20184;-76
2022/11/27 11:08:07;;;;;;;5.63;4.55;;;10.30;99.90;;;;;;5023066;28;20212;-76
2022/11/27 11:10:59;;;;;;;7.63;3.90;;;10.30;99.90;;;;;;5031255;28;20196;-76
2022/11/27 11:13:47;;;;;;;7.38;3.97;;;10.30;99.90;;;;;;5030841;28;20185;-76
2022/11/27 11:16:13;;;;;;;6.88;4.25;;;10.30;99.90;;;;;;5002189;28;20212;-76
2022/11/27 11:18:52;;;;;;;9.82;4.85;;;10.50;99.90;;;;;;5027686;28;20179;-76
2022/11/27 11:21:29;;;;;;;10.30;5.03;;;10.70;99.90;;;;;;5016008;28;20195;-76
2022/11/27 11:24:02;;;;;;;7.72;4.68;;;10.40;99.90;;;;;;5013389;28;20698;-77
2022/11/27 11:26:43;;;;;;;7.93;4.97;;;10.30;99.90;;;;;;5015141;28;20171;-76
2022/11/27 11:29:36;;;;;;;8.18;5.13;;;10.40;99.90;;;;;;5016900;28;20172;-77
2022/11/27 11:32:05;;;;;;;6.75;4.55;;;10.80;99.90;;;;;;5021907;28;20375;-76
2022/11/27 11:34:57;;;;;;;7.57;4.82;;;10.90;99.90;;;;;;5022025;28;20179;-77
2022/11/27 11:37:35;;;;;;;9.88;5.32;;;10.80;99.90;;;;;;5033772;28;20172;-77
2022/11/27 11:40:31;;;;;;;6.10;4.40;;;11.00;99.90;;;;;;5012439;28;20192;-77
2022/11/27 11:43:20;;;;;;;6.75;4.03;;;11.00;99.90;;;;;;5001932;28;20248;-77
2022/11/27 11:45:47;;;;;;;8.95;4.38;;;11.10;99.90;;;;;;5014819;28;20195;-77
2022/11/27 11:48:28;;;;;;;5.20;4.35;;;11.20;99.90;;;;;;5015903;28;20161;-77
2022/11/27 11:51:07;;;;;;;8.48;4.63;;;11.30;99.90;;;;;;5026654;28;20176;-77
2022/11/27 11:54:28;;;;;;;9.82;4.53;;;11.30;99.90;;;;;;5018683;28;20191;-77
2022/11/27 11:57:01;;;;;;;6.00;4.47;;;11.40;99.90;;;;;;5013291;28;20207;-77
2022/11/27 12:00:13;;;;;;;8.77;3.70;;;11.30;99.90;;;;;;5018266;28;20195;-77
2022/11/27 12:03:24;;;;;;;13.50;4.03;;;11.00;99.90;;;;;;5004379;28;20196;-77
2022/11/27 12:06:01;;;;;;;8.82;4.47;;;11.10;99.90;;;;;;5023811;28;20173;-77
2022/11/27 12:09:08;;;;;;;7.75;4.50;;;11.10;99.90;;;;;;5016348;28;20175;-76
2022/11/27 12:12:03;;;;;;;9.75;3.90;;;11.10;99.90;;;;;;4967132;28;20191;-77
2022/11/27 12:14:50;;;;;;;7.85;4.45;;;10.90;99.90;;;;;;5014053;28;20174;-77
2022/11/27 12:17:29;;;;;;;8.27;4.10;;;10.90;99.90;;;;;;4998225;28;20593;-77
2022/11/27 12:20:17;;;;;;;6.20;3.63;;;10.90;99.90;;;;;;5013808;28;20250;-75
2022/11/27 12:23:01;;;;;;;6.10;3.80;;;10.80;99.90;;;;;;5017084;28;20165;-77
2022/11/27 12:25:43;;;;;;;4.82;3.20;;;10.80;99.90;;;;;;5013471;28;20622;-76
2022/11/27 12:28:45;;;;;;;5.68;3.90;;;11.10;99.90;;;;;;5014581;28;20169;-77
2022/11/27 12:31:35;;;;;;;6.65;4.63;;;11.10;99.90;;;;;;5013906;28;20192;-77
2022/11/27 12:34:07;;;;;;;15.13;7.70;;;11.20;99.90;;;;;;5015249;28;20232;-77
2022/11/27 12:37:18;;;;;;;9.40;4.93;;;11.10;99.90;;;;;;5013571;28;20903;-76
2022/11/27 12:40:00;;;;;;;6.18;4.78;;;11.10;99.90;;;;;;5013033;28;20204;-77
2022/11/27 12:42:49;;;;;;;9.88;5.72;;;11.10;99.90;;;;;;5016927;28;20175;-77
2022/11/27 12:45:26;;;;;;;11.48;7.45;;;11.00;99.90;;;;;;5013828;28;20172;-77
2022/11/27 12:48:01;;;;;;;9.30;4.28;;;11.00;99.90;;;;;;5015756;28;20234;-77
2022/11/27 12:50:41;;;;;;;8.80;5.63;;;11.10;99.90;;;;;;5020936;28;20203;-77
2022/11/27 12:53:31;;;;;;;11.07;6.75;;;11.00;99.90;;;;;;5016501;28;20169;-77
2022/11/27 12:57:02;;;;;;;22.05;11.75;;;10.90;99.90;;;;;;5034334;28;20196;-77
2022/11/27 12:59:57;;;;;;;9.05;5.28;;;10.80;99.90;;;;;;5024840;28;20235;-77
2022/11/27 13:02:42;;;;;;;6.95;4.78;;;10.70;99.90;;;;;;5028912;28;20219;-77
2022/11/27 13:05:19;;;;;;;5.68;4.30;;;10.80;99.90;;;;;;5035634;28;20211;-77
2022/11/27 13:08:10;;;;;;;5.82;4.00;;;10.70;99.90;;;;;;5018163;28;20175;-77
2022/11/27 13:10:43;;;;;;;12.02;2.97;;;10.90;99.90;;;;;;5019016;28;20235;-77
2022/11/27 13:13:33;;;;;;;4.43;3.65;;;11.10;99.90;;;;;;5019112;28;20268;-77
2022/11/27 13:16:20;;;;;;;5.95;4.50;;;11.00;99.90;;;;;;5017866;28;20296;-77
2022/11/27 13:19:00;;;;;;;4.78;3.38;;;10.90;99.90;;;;;;5018940;28;20172;-77
2022/11/27 13:21:32;;;;;;;4.93;3.53;;;10.90;99.90;;;;;;5017417;28;20556;-76
2022/11/27 13:24:01;;;;;;;4.53;3.05;;;10.70;99.90;;;;;;5022990;28;20165;-77